sensor_id;sensor_type;location;lat;lon;timestamp;P1;durP1;ratioP1;P2;durP2;ratioP2
21814;SDS011;11069;48.988;8.450;2024-03-02T00:00:08;4.60;;;3.50;;
21814;SDS011;11069;48.988;8.450;2024-03-02T00:02:42;4.75;;;4.00;;
21814;SDS011;11069;48.988;8.450;2024-03-02T00:05:16;4.97;;;3.95;;
21814;SDS011;11069;48.988;8.450;2024-03-02T00:07:43;6.15;;;4.63;;
21814;SDS011;11069;48.988;8.450;2024-03-02T00:10:11;7.38;;;4.60;;
21814;SDS011;11069;48.988;8.450;2024-03-02T00:12:41;4.90;;;4.22;;
21814;SDS011;11069;48.988;8.450;2024-03-02T00:15:30;6.00;;;5.35;;
21814;SDS011;11069;48.988;8.450;2024-03-02T00:17:55;5.07;;;4.50;;
21814;SDS011;11069;48.988;8.450;2024-03-02T00:20:22;5.75;;;5.03;;
21814;SDS011;11069;48.988;8.450;2024-03-02T00:22:48;8.30;;;5.93;;
21814;SDS011;11069;48.988;8.450;2024-03-02T00:25:15;6.22;;;5.55;;
21814;SDS011;11069;48.988;8.450;2024-03-02T00:27:41;6.72;;;5.70;;
21814;SDS011;11069;48.988;8.450;2024-03-02T00:31:08;6.97;;;6.13;;
21814;SDS011;11069;48.988;8.450;2024-03-02T00:33:11;8.40;;;6.38;;
21814;SDS011;11069;48.988;8.450;2024-03-02T00:35:37;7.95;;;6.55;;
21814;SDS011;11069;48.988;8.450;2024-03-02T00:38:05;7.63;;;6.22;;
21814;SDS011;11069;48.988;8.450;2024-03-02T00:40:31;6.88;;;5.60;;
21814;SDS011;11069;48.988;8.450;2024-03-02T00:42:57;3.97;;;2.85;;
21814;SDS011;11069;48.988;8.450;2024-03-02T00:45:24;3.65;;;2.90;;
21814;SDS011;11069;48.988;8.450;2024-03-02T00:47:50;3.30;;;2.95;;
21814;SDS011;11069;48.988;8.450;2024-03-02T00:50:16;4.32;;;3.00;;
21814;SDS011;11069;48.988;8.450;2024-03-02T00:52:42;5.10;;;2.90;;
21814;SDS011;11069;48.988;8.450;2024-03-02T00:55:08;3.10;;;2.80;;
21814;SDS011;11069;48.988;8.450;2024-03-02T00:57:34;4.15;;;3.58;;
21814;SDS011;11069;48.988;8.450;2024-03-02T00:59:59;5.50;;;4.00;;
21814;SDS011;11069;48.988;8.450;2024-03-02T01:02:25;5.72;;;4.70;;
21814;SDS011;11069;48.988;8.450;2024-03-02T01:04:51;5.95;;;5.35;;
21814;SDS011;11069;48.988;8.450;2024-03-02T01:07:17;6.57;;;5.18;;
21814;SDS011;11069;48.988;8.450;2024-03-02T01:09:42;6.65;;;5.50;;
21814;SDS011;11069;48.988;8.450;2024-03-02T01:12:08;9.00;;;6.13;;
21814;SDS011;11069;48.988;8.450;2024-03-02T01:14:34;7.75;;;6.05;;
21814;SDS011;11069;48.988;8.450;2024-03-02T01:17:00;7.25;;;6.10;;
21814;SDS011;11069;48.988;8.450;2024-03-02T01:19:29;6.75;;;6.05;;
21814;SDS011;11069;48.988;8.450;2024-03-02T01:21:55;7.47;;;5.30;;
21814;SDS011;11069;48.988;8.450;2024-03-02T01:24:20;5.82;;;5.03;;
21814;SDS011;11069;48.988;8.450;2024-03-02T01:26:46;6.20;;;5.00;;
21814;SDS011;11069;48.988;8.450;2024-03-02T01:29:11;6.10;;;4.75;;
21814;SDS011;11069;48.988;8.450;2024-03-02T01:31:37;5.43;;;4.93;;
21814;SDS011;11069;48.988;8.450;2024-03-02T01:34:04;6.35;;;5.13;;
21814;SDS011;11069;48.988;8.450;2024-03-02T01:36:30;7.38;;;5.95;;
21814;SDS011;11069;48.988;8.450;2024-03-02T01:38:55;8.30;;;6.28;;
21814;SDS011;11069;48.988;8.450;2024-03-02T01:41:21;8.77;;;6.90;;
21814;SDS011;11069;48.988;8.450;2024-03-02T01:43:47;8.20;;;6.63;;
21814;SDS011;11069;48.988;8.450;2024-03-02T01:46:12;8.40;;;6.32;;
21814;SDS011;11069;48.988;8.450;2024-03-02T01:48:38;7.43;;;6.47;;
21814;SDS011;11069;48.988;8.450;2024-03-02T01:51:03;8.35;;;7.25;;
21814;SDS011;11069;48.988;8.450;2024-03-02T01:53:31;7.70;;;6.53;;
21814;SDS011;11069;48.988;8.450;2024-03-02T01:55:57;8.63;;;6.80;;
21814;SDS011;11069;48.988;8.450;2024-03-02T01:58:22;7.97;;;6.65;;
21814;SDS011;11069;48.988;8.450;2024-03-02T02:00:48;11.40;;;6.80;;
21814;SDS011;11069;48.988;8.450;2024-03-02T02:03:14;8.27;;;6.90;;
21814;SDS011;11069;48.988;8.450;2024-03-02T02:05:41;8.15;;;6.80;;
21814;SDS011;11069;48.988;8.450;2024-03-02T02:08:07;8.10;;;7.00;;
21814;SDS011;11069;48.988;8.450;2024-03-02T02:10:33;8.35;;;6.50;;
21814;SDS011;11069;48.988;8.450;2024-03-02T02:12:58;7.72;;;6.63;;
21814;SDS011;11069;48.988;8.450;2024-03-02T02:15:25;8.20;;;6.63;;
21814;SDS011;11069;48.988;8.450;2024-03-02T02:17:52;7.60;;;6.70;;
21814;SDS011;11069;48.988;8.450;2024-03-02T02:20:18;8.32;;;6.63;;
21814;SDS011;11069;48.988;8.450;2024-03-02T02:25:22;6.72;;;5.95;;
21814;SDS011;11069;48.988;8.450;2024-03-02T02:27:48;7.60;;;6.55;;
21814;SDS011;11069;48.988;8.450;2024-03-02T02:30:14;7.03;;;5.95;;
21814;SDS011;11069;48.988;8.450;2024-03-02T02:32:48;7.32;;;6.63;;
21814;SDS011;11069;48.988;8.450;2024-03-02T02:35:14;7.35;;;6.45;;
21814;SDS011;11069;48.988;8.450;2024-03-02T02:37:39;9.25;;;6.93;;
21814;SDS011;11069;48.988;8.450;2024-03-02T02:40:05;7.25;;;6.28;;
21814;SDS011;11069;48.988;8.450;2024-03-02T02:42:32;8.98;;;6.90;;
21814;SDS011;11069;48.988;8.450;2024-03-02T02:44:57;8.18;;;6.68;;
21814;SDS011;11069;48.988;8.450;2024-03-02T02:47:23;7.95;;;6.53;;
21814;SDS011;11069;48.988;8.450;2024-03-02T02:49:48;7.85;;;6.68;;
21814;SDS011;11069;48.988;8.450;2024-03-02T02:52:14;8.98;;;6.97;;
21814;SDS011;11069;48.988;8.450;2024-03-02T02:54:39;8.77;;;7.13;;
21814;SDS011;11069;48.988;8.450;2024-03-02T02:57:05;8.32;;;6.60;;
21814;SDS011;11069;48.988;8.450;2024-03-02T02:59:30;8.40;;;6.68;;
21814;SDS011;11069;48.988;8.450;2024-03-02T03:01:56;9.70;;;6.75;;
21814;SDS011;11069;48.988;8.450;2024-03-02T03:04:21;6.80;;;6.10;;
21814;SDS011;11069;48.988;8.450;2024-03-02T03:06:47;7.47;;;6.63;;
21814;SDS011;11069;48.988;8.450;2024-03-02T03:09:13;8.18;;;6.55;;
21814;SDS011;11069;48.988;8.450;2024-03-02T03:11:38;6.97;;;5.95;;
21814;SDS011;11069;48.988;8.450;2024-03-02T03:14:04;8.05;;;6.50;;
21814;SDS011;11069;48.988;8.450;2024-03-02T03:16:30;7.53;;;6.65;;
21814;SDS011;11069;48.988;8.450;2024-03-02T03:18:55;6.80;;;6.13;;
21814;SDS011;11069;48.988;8.450;2024-03-02T03:21:21;7.25;;;6.45;;
21814;SDS011;11069;48.988;8.450;2024-03-02T03:23:46;7.00;;;6.30;;
21814;SDS011;11069;48.988;8.450;2024-03-02T03:26:12;6.72;;;6.00;;
21814;SDS011;11069;48.988;8.450;2024-03-02T03:28:38;7.38;;;6.10;;
21814;SDS011;11069;48.988;8.450;2024-03-02T03:31:04;8.02;;;6.30;;
21814;SDS011;11069;48.988;8.450;2024-03-02T03:33:29;7.07;;;5.63;;
21814;SDS011;11069;48.988;8.450;2024-03-02T03:35:55;5.68;;;4.93;;
21814;SDS011;11069;48.988;8.450;2024-03-02T03:38:20;5.30;;;3.70;;
21814;SDS011;11069;48.988;8.450;2024-03-02T03:40:46;4.25;;;3.47;;
21814;SDS011;11069;48.988;8.450;2024-03-02T03:43:12;3.67;;;3.03;;
21814;SDS011;11069;48.988;8.450;2024-03-02T03:45:38;3.33;;;3.03;;
21814;SDS011;11069;48.988;8.450;2024-03-02T03:48:03;3.17;;;2.88;;
21814;SDS011;11069;48.988;8.450;2024-03-02T03:50:29;2.92;;;2.70;;
21814;SDS011;11069;48.988;8.450;2024-03-02T03:52:55;2.85;;;2.55;;
21814;SDS011;11069;48.988;8.450;2024-03-02T03:55:20;2.75;;;2.45;;
21814;SDS011;11069;48.988;8.450;2024-03-02T03:57:46;2.67;;;2.10;;
21814;SDS011;11069;48.988;8.450;2024-03-02T04:00:11;2.70;;;2.22;;
21814;SDS011;11069;48.988;8.450;2024-03-02T04:02:38;5.07;;;2.72;;
21814;SDS011;11069;48.988;8.450;2024-03-02T04:05:04;2.97;;;2.40;;
21814;SDS011;11069;48.988;8.450;2024-03-02T04:07:33;5.05;;;2.60;;
21814;SDS011;11069;48.988;8.450;2024-03-02T04:10:06;3.00;;;2.70;;
21814;SDS011;11069;48.988;8.450;2024-03-02T04:12:33;3.20;;;2.85;;
21814;SDS011;11069;48.988;8.450;2024-03-02T04:14:59;3.22;;;2.60;;
21814;SDS011;11069;48.988;8.450;2024-03-02T04:17:26;3.10;;;2.75;;
21814;SDS011;11069;48.988;8.450;2024-03-02T04:19:52;4.10;;;2.92;;
21814;SDS011;11069;48.988;8.450;2024-03-02T04:22:17;2.85;;;2.45;;
21814;SDS011;11069;48.988;8.450;2024-03-02T04:24:43;2.88;;;2.50;;
21814;SDS011;11069;48.988;8.450;2024-03-02T04:27:08;2.55;;;2.35;;
21814;SDS011;11069;48.988;8.450;2024-03-02T04:29:34;3.08;;;2.72;;
21814;SDS011;11069;48.988;8.450;2024-03-02T04:31:59;3.70;;;2.75;;
21814;SDS011;11069;48.988;8.450;2024-03-02T04:34:25;3.08;;;2.75;;
21814;SDS011;11069;48.988;8.450;2024-03-02T04:36:50;4.72;;;3.22;;
21814;SDS011;11069;48.988;8.450;2024-03-02T04:39:16;3.83;;;3.42;;
21814;SDS011;11069;48.988;8.450;2024-03-02T04:41:42;3.72;;;3.38;;
21814;SDS011;11069;48.988;8.450;2024-03-02T04:44:07;5.15;;;3.90;;
21814;SDS011;11069;48.988;8.450;2024-03-02T04:46:33;6.47;;;4.13;;
21814;SDS011;11069;48.988;8.450;2024-03-02T04:48:58;4.70;;;4.13;;
21814;SDS011;11069;48.988;8.450;2024-03-02T04:51:24;5.78;;;4.00;;
21814;SDS011;11069;48.988;8.450;2024-03-02T04:53:49;6.82;;;4.35;;
21814;SDS011;11069;48.988;8.450;2024-03-02T04:56:15;7.82;;;4.80;;
21814;SDS011;11069;48.988;8.450;2024-03-02T04:58:55;5.57;;;4.75;;
21814;SDS011;11069;48.988;8.450;2024-03-02T05:01:21;5.45;;;4.75;;
21814;SDS011;11069;48.988;8.450;2024-03-02T05:03:47;6.45;;;4.90;;
21814;SDS011;11069;48.988;8.450;2024-03-02T05:06:12;8.15;;;4.93;;
21814;SDS011;11069;48.988;8.450;2024-03-02T05:08:38;6.30;;;5.10;;
21814;SDS011;11069;48.988;8.450;2024-03-02T05:11:03;5.93;;;4.28;;
21814;SDS011;11069;48.988;8.450;2024-03-02T05:13:47;6.78;;;4.97;;
21814;SDS011;11069;48.988;8.450;2024-03-02T05:16:13;7.43;;;5.00;;
21814;SDS011;11069;48.988;8.450;2024-03-02T05:18:39;6.57;;;5.30;;
21814;SDS011;11069;48.988;8.450;2024-03-02T05:21:04;8.00;;;5.95;;
21814;SDS011;11069;48.988;8.450;2024-03-02T05:23:30;6.70;;;5.22;;
21814;SDS011;11069;48.988;8.450;2024-03-02T05:25:56;6.43;;;5.38;;
21814;SDS011;11069;48.988;8.450;2024-03-02T05:28:21;6.65;;;5.35;;
21814;SDS011;11069;48.988;8.450;2024-03-02T05:30:47;5.60;;;5.10;;
21814;SDS011;11069;48.988;8.450;2024-03-02T05:33:12;5.80;;;4.90;;
21814;SDS011;11069;48.988;8.450;2024-03-02T05:35:38;7.68;;;5.63;;
21814;SDS011;11069;48.988;8.450;2024-03-02T05:38:03;5.70;;;4.90;;
21814;SDS011;11069;48.988;8.450;2024-03-02T05:40:29;5.50;;;4.57;;
21814;SDS011;11069;48.988;8.450;2024-03-02T05:42:54;5.32;;;4.65;;
21814;SDS011;11069;48.988;8.450;2024-03-02T05:45:20;6.03;;;5.03;;
21814;SDS011;11069;48.988;8.450;2024-03-02T05:47:45;6.20;;;4.57;;
21814;SDS011;11069;48.988;8.450;2024-03-02T05:50:11;5.47;;;4.80;;
21814;SDS011;11069;48.988;8.450;2024-03-02T05:52:36;5.28;;;4.72;;
21814;SDS011;11069;48.988;8.450;2024-03-02T05:55:02;5.78;;;4.93;;
21814;SDS011;11069;48.988;8.450;2024-03-02T05:57:29;6.80;;;4.80;;
21814;SDS011;11069;48.988;8.450;2024-03-02T06:00:14;6.20;;;4.68;;
21814;SDS011;11069;48.988;8.450;2024-03-02T06:02:41;5.03;;;4.53;;
21814;SDS011;11069;48.988;8.450;2024-03-02T06:05:07;5.72;;;4.93;;
21814;SDS011;11069;48.988;8.450;2024-03-02T06:07:33;7.30;;;5.07;;
21814;SDS011;11069;48.988;8.450;2024-03-02T06:09:59;6.85;;;5.20;;
21814;SDS011;11069;48.988;8.450;2024-03-02T06:12:24;6.07;;;5.18;;
21814;SDS011;11069;48.988;8.450;2024-03-02T06:14:50;5.88;;;5.25;;
21814;SDS011;11069;48.988;8.450;2024-03-02T06:17:16;6.05;;;5.40;;
21814;SDS011;11069;48.988;8.450;2024-03-02T06:19:41;9.35;;;5.68;;
21814;SDS011;11069;48.988;8.450;2024-03-02T06:22:07;6.78;;;5.22;;
21814;SDS011;11069;48.988;8.450;2024-03-02T06:24:35;6.05;;;5.07;;
21814;SDS011;11069;48.988;8.450;2024-03-02T06:27:02;7.57;;;5.43;;
21814;SDS011;11069;48.988;8.450;2024-03-02T06:29:28;10.30;;;5.72;;
21814;SDS011;11069;48.988;8.450;2024-03-02T06:31:53;6.70;;;6.00;;
21814;SDS011;11069;48.988;8.450;2024-03-02T06:34:19;9.25;;;5.55;;
21814;SDS011;11069;48.988;8.450;2024-03-02T06:36:44;6.75;;;5.30;;
21814;SDS011;11069;48.988;8.450;2024-03-02T06:39:10;7.72;;;5.60;;
21814;SDS011;11069;48.988;8.450;2024-03-02T06:41:37;6.85;;;5.82;;
21814;SDS011;11069;48.988;8.450;2024-03-02T06:44:03;9.23;;;6.07;;
21814;SDS011;11069;48.988;8.450;2024-03-02T06:46:28;7.90;;;7.10;;
21814;SDS011;11069;48.988;8.450;2024-03-02T06:48:54;7.57;;;6.78;;
21814;SDS011;11069;48.988;8.450;2024-03-02T06:51:20;8.05;;;6.30;;
21814;SDS011;11069;48.988;8.450;2024-03-02T06:53:45;8.48;;;5.93;;
21814;SDS011;11069;48.988;8.450;2024-03-02T06:56:11;8.70;;;5.95;;
21814;SDS011;11069;48.988;8.450;2024-03-02T06:58:37;7.78;;;5.78;;
21814;SDS011;11069;48.988;8.450;2024-03-02T07:01:02;13.07;;;6.53;;
21814;SDS011;11069;48.988;8.450;2024-03-02T07:03:28;7.15;;;5.40;;
21814;SDS011;11069;48.988;8.450;2024-03-02T07:05:54;7.18;;;5.80;;
21814;SDS011;11069;48.988;8.450;2024-03-02T07:08:19;6.57;;;5.90;;
21814;SDS011;11069;48.988;8.450;2024-03-02T07:10:45;7.43;;;6.07;;
21814;SDS011;11069;48.988;8.450;2024-03-02T07:13:12;8.80;;;6.60;;
21814;SDS011;11069;48.988;8.450;2024-03-02T07:15:38;6.97;;;6.28;;
21814;SDS011;11069;48.988;8.450;2024-03-02T07:18:22;7.07;;;5.88;;
21814;SDS011;11069;48.988;8.450;2024-03-02T07:20:47;6.85;;;5.95;;
21814;SDS011;11069;48.988;8.450;2024-03-02T07:23:16;8.25;;;5.50;;
21814;SDS011;11069;48.988;8.450;2024-03-02T07:25:42;5.65;;;4.63;;
21814;SDS011;11069;48.988;8.450;2024-03-02T07:28:07;6.13;;;4.70;;
21814;SDS011;11069;48.988;8.450;2024-03-02T07:30:33;5.50;;;4.28;;
21814;SDS011;11069;48.988;8.450;2024-03-02T07:32:59;6.10;;;4.10;;
21814;SDS011;11069;48.988;8.450;2024-03-02T07:35:25;7.28;;;3.85;;
21814;SDS011;11069;48.988;8.450;2024-03-02T07:37:53;6.38;;;3.90;;
21814;SDS011;11069;48.988;8.450;2024-03-02T07:40:20;5.68;;;3.97;;
21814;SDS011;11069;48.988;8.450;2024-03-02T07:42:46;7.85;;;4.00;;
21814;SDS011;11069;48.988;8.450;2024-03-02T07:45:11;5.65;;;3.72;;
21814;SDS011;11069;48.988;8.450;2024-03-02T07:47:37;4.28;;;3.50;;
21814;SDS011;11069;48.988;8.450;2024-03-02T07:50:03;4.90;;;3.75;;
21814;SDS011;11069;48.988;8.450;2024-03-02T07:52:31;7.75;;;4.05;;
21814;SDS011;11069;48.988;8.450;2024-03-02T07:54:57;5.03;;;3.63;;
21814;SDS011;11069;48.988;8.450;2024-03-02T07:57:22;5.75;;;3.75;;
21814;SDS011;11069;48.988;8.450;2024-03-02T07:59:48;4.47;;;3.35;;
21814;SDS011;11069;48.988;8.450;2024-03-02T08:02:14;5.10;;;3.63;;
21814;SDS011;11069;48.988;8.450;2024-03-02T08:04:40;5.45;;;4.18;;
21814;SDS011;11069;48.988;8.450;2024-03-02T08:07:06;9.68;;;4.80;;
21814;SDS011;11069;48.988;8.450;2024-03-02T08:09:31;6.32;;;4.70;;
21814;SDS011;11069;48.988;8.450;2024-03-02T08:11:57;6.55;;;4.35;;
21814;SDS011;11069;48.988;8.450;2024-03-02T08:14:23;8.27;;;4.60;;
21814;SDS011;11069;48.988;8.450;2024-03-02T08:16:49;7.18;;;4.70;;
21814;SDS011;11069;48.988;8.450;2024-03-02T08:19:15;5.57;;;3.95;;
21814;SDS011;11069;48.988;8.450;2024-03-02T08:21:41;7.45;;;4.53;;
21814;SDS011;11069;48.988;8.450;2024-03-02T08:24:08;7.85;;;4.10;;
21814;SDS011;11069;48.988;8.450;2024-03-02T08:26:34;7.28;;;4.00;;
21814;SDS011;11069;48.988;8.450;2024-03-02T08:29:00;5.15;;;3.60;;
21814;SDS011;11069;48.988;8.450;2024-03-02T08:31:28;4.95;;;3.40;;
21814;SDS011;11069;48.988;8.450;2024-03-02T08:33:54;7.57;;;3.70;;
21814;SDS011;11069;48.988;8.450;2024-03-02T08:36:20;5.40;;;3.72;;
21814;SDS011;11069;48.988;8.450;2024-03-02T08:38:46;6.13;;;3.00;;
21814;SDS011;11069;48.988;8.450;2024-03-02T08:41:13;7.43;;;3.35;;
21814;SDS011;11069;48.988;8.450;2024-03-02T08:43:41;3.60;;;3.05;;
21814;SDS011;11069;48.988;8.450;2024-03-02T08:46:07;4.18;;;3.20;;
21814;SDS011;11069;48.988;8.450;2024-03-02T08:48:33;3.20;;;2.83;;
21814;SDS011;11069;48.988;8.450;2024-03-02T08:50:59;3.90;;;3.20;;
21814;SDS011;11069;48.988;8.450;2024-03-02T08:53:25;6.15;;;3.58;;
21814;SDS011;11069;48.988;8.450;2024-03-02T08:55:51;5.32;;;3.17;;
21814;SDS011;11069;48.988;8.450;2024-03-02T08:58:17;3.95;;;3.10;;
21814;SDS011;11069;48.988;8.450;2024-03-02T09:00:43;3.65;;;2.72;;
21814;SDS011;11069;48.988;8.450;2024-03-02T09:03:09;2.78;;;2.47;;
21814;SDS011;11069;48.988;8.450;2024-03-02T09:05:35;3.22;;;2.55;;
21814;SDS011;11069;48.988;8.450;2024-03-02T09:08:00;2.90;;;2.47;;
21814;SDS011;11069;48.988;8.450;2024-03-02T09:10:28;3.28;;;2.60;;
21814;SDS011;11069;48.988;8.450;2024-03-02T09:12:55;4.55;;;2.38;;
21814;SDS011;11069;48.988;8.450;2024-03-02T09:15:21;3.83;;;2.78;;
21814;SDS011;11069;48.988;8.450;2024-03-02T09:17:48;2.45;;;2.25;;
21814;SDS011;11069;48.988;8.450;2024-03-02T09:20:13;2.95;;;2.65;;
21814;SDS011;11069;48.988;8.450;2024-03-02T09:22:39;3.03;;;2.50;;
21814;SDS011;11069;48.988;8.450;2024-03-02T09:25:05;4.05;;;2.80;;
21814;SDS011;11069;48.988;8.450;2024-03-02T09:27:35;2.78;;;2.40;;
21814;SDS011;11069;48.988;8.450;2024-03-02T09:30:01;5.38;;;2.90;;
21814;SDS011;11069;48.988;8.450;2024-03-02T09:32:27;3.38;;;2.50;;
21814;SDS011;11069;48.988;8.450;2024-03-02T09:34:53;5.13;;;3.00;;
21814;SDS011;11069;48.988;8.450;2024-03-02T09:37:20;3.55;;;3.20;;
21814;SDS011;11069;48.988;8.450;2024-03-02T09:39:46;4.93;;;2.92;;
21814;SDS011;11069;48.988;8.450;2024-03-02T09:42:12;4.78;;;3.40;;
21814;SDS011;11069;48.988;8.450;2024-03-02T09:44:38;4.35;;;2.95;;
21814;SDS011;11069;48.988;8.450;2024-03-02T09:47:04;5.75;;;3.10;;
21814;SDS011;11069;48.988;8.450;2024-03-02T09:49:31;4.40;;;2.97;;
21814;SDS011;11069;48.988;8.450;2024-03-02T09:51:57;3.13;;;2.72;;
21814;SDS011;11069;48.988;8.450;2024-03-02T09:54:22;5.55;;;3.17;;
21814;SDS011;11069;48.988;8.450;2024-03-02T09:56:48;7.18;;;3.28;;
21814;SDS011;11069;48.988;8.450;2024-03-02T09:59:15;4.68;;;3.00;;
21814;SDS011;11069;48.988;8.450;2024-03-02T10:01:57;8.75;;;3.00;;
21814;SDS011;11069;48.988;8.450;2024-03-02T10:04:26;5.47;;;2.97;;
21814;SDS011;11069;48.988;8.450;2024-03-02T10:09:38;4.57;;;2.80;;
21814;SDS011;11069;48.988;8.450;2024-03-02T10:12:05;3.35;;;2.90;;
21814;SDS011;11069;48.988;8.450;2024-03-02T10:14:31;4.65;;;3.10;;
21814;SDS011;11069;48.988;8.450;2024-03-02T10:17:04;2.95;;;2.50;;
21814;SDS011;11069;48.988;8.450;2024-03-02T10:19:31;3.72;;;2.58;;
21814;SDS011;11069;48.988;8.450;2024-03-02T10:22:06;3.63;;;2.58;;
21814;SDS011;11069;48.988;8.450;2024-03-02T10:24:34;3.45;;;2.58;;
21814;SDS011;11069;48.988;8.450;2024-03-02T10:27:01;4.95;;;2.95;;
21814;SDS011;11069;48.988;8.450;2024-03-02T10:29:29;4.05;;;3.10;;
21814;SDS011;11069;48.988;8.450;2024-03-02T10:31:55;4.07;;;2.90;;
21814;SDS011;11069;48.988;8.450;2024-03-02T10:34:21;4.35;;;2.95;;
21814;SDS011;11069;48.988;8.450;2024-03-02T10:36:47;3.25;;;2.60;;
21814;SDS011;11069;48.988;8.450;2024-03-02T10:39:13;3.28;;;2.55;;
21814;SDS011;11069;48.988;8.450;2024-03-02T10:41:39;5.38;;;2.75;;
21814;SDS011;11069;48.988;8.450;2024-03-02T10:44:06;3.20;;;2.53;;
21814;SDS011;11069;48.988;8.450;2024-03-02T10:46:33;4.07;;;2.83;;
21814;SDS011;11069;48.988;8.450;2024-03-02T10:49:00;5.20;;;3.22;;
21814;SDS011;11069;48.988;8.450;2024-03-02T10:51:28;4.25;;;3.10;;
21814;SDS011;11069;48.988;8.450;2024-03-02T10:53:56;9.55;;;3.08;;
21814;SDS011;11069;48.988;8.450;2024-03-02T10:56:42;3.60;;;2.70;;
21814;SDS011;11069;48.988;8.450;2024-03-02T11:01:35;3.35;;;2.38;;
21814;SDS011;11069;48.988;8.450;2024-03-02T11:04:04;2.88;;;2.20;;
21814;SDS011;11069;48.988;8.450;2024-03-02T11:06:33;4.38;;;2.30;;
21814;SDS011;11069;48.988;8.450;2024-03-02T11:09:06;3.17;;;2.20;;
21814;SDS011;11069;48.988;8.450;2024-03-02T11:11:36;5.85;;;2.13;;
21814;SDS011;11069;48.988;8.450;2024-03-02T11:14:07;2.22;;;1.50;;
21814;SDS011;11069;48.988;8.450;2024-03-02T11:16:37;1.10;;;1.00;;
21814;SDS011;11069;48.988;8.450;2024-03-02T11:19:07;1.73;;;1.10;;
21814;SDS011;11069;48.988;8.450;2024-03-02T11:21:38;1.75;;;1.45;;
21814;SDS011;11069;48.988;8.450;2024-03-02T11:26:52;1.70;;;1.60;;
21814;SDS011;11069;48.988;8.450;2024-03-02T11:30:03;2.20;;;1.40;;
21814;SDS011;11069;48.988;8.450;2024-03-02T11:34:30;1.60;;;1.30;;
21814;SDS011;11069;48.988;8.450;2024-03-02T11:36:57;8.07;;;1.70;;
21814;SDS011;11069;48.988;8.450;2024-03-02T11:39:26;3.00;;;1.65;;
21814;SDS011;11069;48.988;8.450;2024-03-02T11:41:52;1.80;;;1.55;;
21814;SDS011;11069;48.988;8.450;2024-03-02T11:44:18;1.80;;;1.40;;
21814;SDS011;11069;48.988;8.450;2024-03-02T11:49:41;2.55;;;1.50;;
21814;SDS011;11069;48.988;8.450;2024-03-02T11:52:12;1.92;;;1.63;;
21814;SDS011;11069;48.988;8.450;2024-03-02T11:54:40;3.05;;;1.85;;
21814;SDS011;11069;48.988;8.450;2024-03-02T11:57:11;3.13;;;1.90;;
21814;SDS011;11069;48.988;8.450;2024-03-02T11:59:39;2.28;;;1.70;;
21814;SDS011;11069;48.988;8.450;2024-03-02T12:02:06;1.92;;;1.60;;
21814;SDS011;11069;48.988;8.450;2024-03-02T12:04:31;2.00;;;1.80;;
21814;SDS011;11069;48.988;8.450;2024-03-02T12:07:00;5.65;;;2.00;;
21814;SDS011;11069;48.988;8.450;2024-03-02T12:09:29;2.72;;;1.60;;
21814;SDS011;11069;48.988;8.450;2024-03-02T12:12:02;1.55;;;1.40;;
21814;SDS011;11069;48.988;8.450;2024-03-02T12:14:28;4.13;;;1.60;;
21814;SDS011;11069;48.988;8.450;2024-03-02T12:16:55;5.45;;;1.95;;
21814;SDS011;11069;48.988;8.450;2024-03-02T12:19:21;2.20;;;1.60;;
21814;SDS011;11069;48.988;8.450;2024-03-02T12:21:46;3.08;;;2.30;;
21814;SDS011;11069;48.988;8.450;2024-03-02T12:24:12;4.15;;;2.72;;
21814;SDS011;11069;48.988;8.450;2024-03-02T12:26:38;3.03;;;2.33;;
21814;SDS011;11069;48.988;8.450;2024-03-02T12:29:04;2.75;;;2.45;;
21814;SDS011;11069;48.988;8.450;2024-03-02T12:31:30;7.45;;;2.22;;
21814;SDS011;11069;48.988;8.450;2024-03-02T12:33:56;3.55;;;2.58;;
21814;SDS011;11069;48.988;8.450;2024-03-02T12:36:21;3.83;;;2.50;;
21814;SDS011;11069;48.988;8.450;2024-03-02T12:38:47;3.70;;;2.58;;
21814;SDS011;11069;48.988;8.450;2024-03-02T12:41:16;3.33;;;2.35;;
21814;SDS011;11069;48.988;8.450;2024-03-02T12:43:42;3.88;;;2.67;;
21814;SDS011;11069;48.988;8.450;2024-03-02T12:46:07;3.25;;;2.45;;
21814;SDS011;11069;48.988;8.450;2024-03-02T12:48:34;3.38;;;2.45;;
21814;SDS011;11069;48.988;8.450;2024-03-02T12:51:01;3.25;;;2.70;;
21814;SDS011;11069;48.988;8.450;2024-03-02T12:53:27;2.50;;;2.30;;
21814;SDS011;11069;48.988;8.450;2024-03-02T12:55:55;2.95;;;2.22;;
21814;SDS011;11069;48.988;8.450;2024-03-02T12:58:22;2.92;;;2.42;;
21814;SDS011;11069;48.988;8.450;2024-03-02T13:00:48;2.55;;;2.05;;
21814;SDS011;11069;48.988;8.450;2024-03-02T13:03:13;3.92;;;2.33;;
21814;SDS011;11069;48.988;8.450;2024-03-02T13:05:43;2.80;;;2.30;;
21814;SDS011;11069;48.988;8.450;2024-03-02T13:08:14;2.88;;;1.88;;
21814;SDS011;11069;48.988;8.450;2024-03-02T13:10:39;2.65;;;2.03;;
21814;SDS011;11069;48.988;8.450;2024-03-02T13:13:06;1.90;;;1.70;;
21814;SDS011;11069;48.988;8.450;2024-03-02T13:15:32;5.43;;;2.03;;
21814;SDS011;11069;48.988;8.450;2024-03-02T13:17:59;2.17;;;1.98;;
21814;SDS011;11069;48.988;8.450;2024-03-02T13:20:32;2.47;;;2.00;;
21814;SDS011;11069;48.988;8.450;2024-03-02T13:22:57;2.20;;;2.00;;
21814;SDS011;11069;48.988;8.450;2024-03-02T13:25:23;3.28;;;1.60;;
21814;SDS011;11069;48.988;8.450;2024-03-02T13:27:49;2.95;;;1.95;;
21814;SDS011;11069;48.988;8.450;2024-03-02T13:30:14;3.03;;;1.67;;
21814;SDS011;11069;48.988;8.450;2024-03-02T13:32:40;4.22;;;1.98;;
21814;SDS011;11069;48.988;8.450;2024-03-02T13:35:07;2.03;;;1.73;;
21814;SDS011;11069;48.988;8.450;2024-03-02T13:37:36;2.40;;;2.00;;
21814;SDS011;11069;48.988;8.450;2024-03-02T13:40:02;4.20;;;1.75;;
21814;SDS011;11069;48.988;8.450;2024-03-02T13:42:29;1.80;;;1.70;;
21814;SDS011;11069;48.988;8.450;2024-03-02T13:44:55;3.63;;;1.80;;
21814;SDS011;11069;48.988;8.450;2024-03-02T13:47:21;2.78;;;1.80;;
21814;SDS011;11069;48.988;8.450;2024-03-02T13:49:47;2.45;;;1.65;;
21814;SDS011;11069;48.988;8.450;2024-03-02T13:52:14;1.60;;;1.50;;
21814;SDS011;11069;48.988;8.450;2024-03-02T13:54:41;4.15;;;1.50;;
21814;SDS011;11069;48.988;8.450;2024-03-02T13:57:09;2.20;;;1.77;;
21814;SDS011;11069;48.988;8.450;2024-03-02T13:59:36;4.00;;;1.67;;
21814;SDS011;11069;48.988;8.450;2024-03-02T14:02:02;3.05;;;1.52;;
21814;SDS011;11069;48.988;8.450;2024-03-02T14:04:31;2.03;;;1.55;;
21814;SDS011;11069;48.988;8.450;2024-03-02T14:06:58;2.13;;;1.75;;
21814;SDS011;11069;48.988;8.450;2024-03-02T14:09:24;2.33;;;1.67;;
21814;SDS011;11069;48.988;8.450;2024-03-02T14:11:50;1.73;;;1.60;;
21814;SDS011;11069;48.988;8.450;2024-03-02T14:14:19;2.42;;;1.85;;
21814;SDS011;11069;48.988;8.450;2024-03-02T14:16:45;2.08;;;1.85;;
21814;SDS011;11069;48.988;8.450;2024-03-02T14:19:11;1.80;;;1.55;;
21814;SDS011;11069;48.988;8.450;2024-03-02T14:21:40;2.38;;;1.40;;
21814;SDS011;11069;48.988;8.450;2024-03-02T14:24:06;1.98;;;1.58;;
21814;SDS011;11069;48.988;8.450;2024-03-02T14:26:32;2.33;;;1.60;;
21814;SDS011;11069;48.988;8.450;2024-03-02T14:28:58;1.77;;;1.52;;
21814;SDS011;11069;48.988;8.450;2024-03-02T14:31:26;1.70;;;1.50;;
21814;SDS011;11069;48.988;8.450;2024-03-02T14:33:52;1.92;;;1.50;;
21814;SDS011;11069;48.988;8.450;2024-03-02T14:36:18;2.10;;;1.80;;
21814;SDS011;11069;48.988;8.450;2024-03-02T14:38:43;1.98;;;1.55;;
21814;SDS011;11069;48.988;8.450;2024-03-02T14:41:09;2.95;;;1.70;;
21814;SDS011;11069;48.988;8.450;2024-03-02T14:43:35;1.73;;;1.63;;
21814;SDS011;11069;48.988;8.450;2024-03-02T14:46:03;3.47;;;1.70;;
21814;SDS011;11069;48.988;8.450;2024-03-02T14:48:29;2.17;;;1.30;;
21814;SDS011;11069;48.988;8.450;2024-03-02T14:50:55;1.98;;;1.63;;
21814;SDS011;11069;48.988;8.450;2024-03-02T14:53:21;2.42;;;1.67;;
21814;SDS011;11069;48.988;8.450;2024-03-02T14:55:46;2.10;;;1.75;;
21814;SDS011;11069;48.988;8.450;2024-03-02T14:58:12;1.50;;;1.25;;
21814;SDS011;11069;48.988;8.450;2024-03-02T15:00:37;1.40;;;1.20;;